createdAt,value
2019-06-07T00:02:18.763Z,13.23
2019-06-07T00:04:48.400Z,13.63
2019-06-07T00:07:21.433Z,13.57
2019-06-07T00:09:48.997Z,14.47
2019-06-07T00:12:21.550Z,15.40
2019-06-07T00:14:49.545Z,11.67
2019-06-07T00:17:20.252Z,12.07
2019-06-07T00:19:50.278Z,7.40
2019-06-07T00:22:32.502Z,9.67
2019-06-07T00:24:51.192Z,7.77
2019-06-07T00:27:22.546Z,8.30
2019-06-07T00:29:51.805Z,9.63
2019-06-07T00:32:22.330Z,11.83
2019-06-07T00:34:51.942Z,13.53
2019-06-07T00:37:25.325Z,13.30
2019-06-07T00:40:12.972Z,11.30
2019-06-07T00:42:24.259Z,11.03
2019-06-07T00:44:54.070Z,12.67
2019-06-07T00:47:25.546Z,14.27
2019-06-07T00:49:54.743Z,13.00
2019-06-07T00:53:11.448Z,16.10
2019-06-07T00:54:55.451Z,17.13
2019-06-07T00:57:24.864Z,20.17
2019-06-07T00:59:54.479Z,11.80
2019-06-07T01:02:28.312Z,17.97
2019-06-07T01:04:55.078Z,15.43
2019-06-07T01:07:24.633Z,11.80
2019-06-07T01:09:54.035Z,8.67
2019-06-07T01:12:24.604Z,6.27
2019-06-07T01:14:54.765Z,8.37
2019-06-07T01:17:41.441Z,11.27
2019-06-07T01:19:58.448Z,11.30
2019-06-07T01:22:29.467Z,11.90
2019-06-07T01:24:59.124Z,11.47
2019-06-07T01:27:28.837Z,12.87
2019-06-07T01:29:58.378Z,16.13
2019-06-07T01:32:31.840Z,22.17
2019-06-07T01:35:00.486Z,22.50
2019-06-07T01:37:30.440Z,24.27
2019-06-07T01:40:00.055Z,22.37
2019-06-07T01:42:31.010Z,22.07
2019-06-07T01:45:00.713Z,21.17
2019-06-07T01:47:32.094Z,23.63
2019-06-07T01:50:01.304Z,24.17
2019-06-07T01:52:30.683Z,22.43
2019-06-07T01:55:00.171Z,23.67
2019-06-07T01:57:44.204Z,25.57
2019-06-07T02:00:00.845Z,26.67
2019-06-07T02:02:31.837Z,27.07
2019-06-07T02:05:01.426Z,23.97
2019-06-07T02:07:33.246Z,20.47
2019-06-07T02:10:02.191Z,21.33
2019-06-07T02:12:42.446Z,19.53
2019-06-07T02:15:07.355Z,19.17
2019-06-07T02:17:37.302Z,20.97
2019-06-07T02:20:09.494Z,19.20
2019-06-07T02:22:38.906Z,18.77
2019-06-07T02:27:40.007Z,15.33
2019-06-07T02:30:37.169Z,15.60
2019-06-07T02:32:41.530Z,16.17
2019-06-07T02:35:11.037Z,17.40
2019-06-07T02:37:40.475Z,16.13
2019-06-07T02:40:10.644Z,18.00
2019-06-07T02:42:42.819Z,19.60
2019-06-07T02:45:11.454Z,19.60
2019-06-07T02:47:41.761Z,20.90
2019-06-07T02:50:14.059Z,18.37
2019-06-07T02:52:43.532Z,17.00
2019-06-07T02:55:13.227Z,18.20
2019-06-07T02:57:43.347Z,15.63
2019-06-07T03:00:41.246Z,15.00
2019-06-07T03:02:46.666Z,13.80
2019-06-07T03:05:16.176Z,16.63
2019-06-07T03:07:48.039Z,15.27
2019-06-07T03:10:17.565Z,18.13
2019-06-07T03:12:50.719Z,20.03
2019-06-07T03:15:32.638Z,18.63
2019-06-07T03:17:57.675Z,17.03
2019-06-07T03:20:32.848Z,21.13
2019-06-07T03:23:02.504Z,22.63
2019-06-07T03:25:37.014Z,24.83
2019-06-07T03:28:07.364Z,22.33
2019-06-07T03:30:52.047Z,24.80
2019-06-07T03:33:09.493Z,25.70
2019-06-07T03:35:40.650Z,27.33
2019-06-07T03:38:10.044Z,30.83
2019-06-07T03:40:40.245Z,29.73
2019-06-07T03:43:09.787Z,29.23
2019-06-07T03:45:41.480Z,28.87
2019-06-07T03:48:11.871Z,29.70
2019-06-07T03:50:42.238Z,27.53
2019-06-07T03:53:12.089Z,27.10
2019-06-07T03:55:41.622Z,28.60
2019-06-07T03:58:31.448Z,29.87
2019-06-07T04:00:43.438Z,30.57
2019-06-07T04:03:32.368Z,35.80
2019-06-07T04:05:44.319Z,35.80
2019-06-07T04:08:13.775Z,40.33
2019-06-07T04:10:58.721Z,41.33
2019-06-07T04:13:14.628Z,43.03
2019-06-07T04:15:44.052Z,42.33
2019-06-07T04:18:13.525Z,39.83
2019-06-07T04:20:43.002Z,36.30
2019-06-07T04:23:27.580Z,34.33
2019-06-07T04:25:43.902Z,31.67
2019-06-07T04:28:13.344Z,29.87
2019-06-07T04:30:44.451Z,27.83
2019-06-07T04:33:14.901Z,26.07
2019-06-07T04:35:45.316Z,25.03
2019-06-07T04:38:15.253Z,23.90
2019-06-07T04:40:45.021Z,22.90
2019-06-07T04:43:14.536Z,24.03
2019-06-07T04:45:50.676Z,23.90
2019-06-07T04:48:15.154Z,23.13
2019-06-07T04:50:44.575Z,22.73
2019-06-07T04:53:14.017Z,23.20
2019-06-07T04:55:43.537Z,24.07
2019-06-07T04:58:13.072Z,23.27
2019-06-07T05:00:52.406Z,24.43
2019-06-07T05:03:14.288Z,24.40
2019-06-07T05:05:44.081Z,24.87
2019-06-07T05:08:27.456Z,25.50
2019-06-07T05:10:44.759Z,24.60
2019-06-07T05:13:14.212Z,22.47
2019-06-07T05:15:43.652Z,24.70
2019-06-07T05:18:13.108Z,23.23
2019-06-07T05:20:44.476Z,21.43
2019-06-07T05:23:59.550Z,21.07
2019-06-07T05:25:45.016Z,21.27
2019-06-07T05:28:14.508Z,20.63
2019-06-07T05:31:03.891Z,20.23
2019-06-07T05:33:15.167Z,19.70
2019-06-07T05:35:44.692Z,20.00
2019-06-07T05:38:14.190Z,19.70
2019-06-07T05:40:48.682Z,20.03
2019-06-07T05:43:25.548Z,19.13
2019-06-07T05:45:55.070Z,18.73
2019-06-07T05:48:24.666Z,17.77
2019-06-07T05:50:57.735Z,18.17
2019-06-07T05:53:25.289Z,17.83
2019-06-07T05:55:56.343Z,17.50
2019-06-07T05:58:25.756Z,17.17
2019-06-07T06:00:55.203Z,15.97
2019-06-07T06:03:24.652Z,15.53
2019-06-07T06:05:55.519Z,15.80
2019-06-07T06:08:25.743Z,14.93
2019-06-07T06:10:55.268Z,15.93
2019-06-07T06:13:24.724Z,13.57
2019-06-07T06:16:01.150Z,14.33
2019-06-07T06:18:25.321Z,13.27
2019-06-07T06:21:15.654Z,13.93
2019-06-07T06:23:26.008Z,13.90
2019-06-07T06:25:57.376Z,12.57
2019-06-07T06:28:27.306Z,12.93
2019-06-07T06:30:57.029Z,13.63
2019-06-07T06:33:34.538Z,13.13
2019-06-07T06:35:59.015Z,12.73
2019-06-07T06:38:28.446Z,12.90
2019-06-07T06:41:14.322Z,13.33
2019-06-07T06:43:29.014Z,12.43
2019-06-07T06:45:58.482Z,11.60
2019-06-07T06:48:27.913Z,11.83
2019-06-07T06:50:57.442Z,11.80
2019-06-07T06:53:26.912Z,11.20
2019-06-07T06:55:56.367Z,10.97
2019-06-07T06:58:25.906Z,10.80
2019-06-07T07:01:06.010Z,11.30
2019-06-07T07:06:23.442Z,11.20
2019-06-07T07:08:29.783Z,10.83
2019-06-07T07:11:00.051Z,10.80
2019-06-07T07:13:29.524Z,11.27
2019-06-07T07:15:58.998Z,10.37
2019-06-07T07:18:28.430Z,10.73
2019-06-07T07:20:57.939Z,11.33
2019-06-07T07:23:27.504Z,11.43
2019-06-07T07:25:59.308Z,11.10
2019-06-07T07:28:28.170Z,9.83
2019-06-07T07:30:57.690Z,10.93
2019-06-07T07:34:20.142Z,10.73
2019-06-07T07:36:28.474Z,11.40
2019-06-07T07:38:29.481Z,11.87
2019-06-07T07:41:13.994Z,11.50
2019-06-07T07:43:30.079Z,11.33
2019-06-07T07:46:03.225Z,11.93
2019-06-07T07:48:31.071Z,11.70
2019-06-07T07:51:03.090Z,11.63
2019-06-07T07:53:47.853Z,12.10
2019-06-07T07:56:03.115Z,12.83
2019-06-07T07:58:32.736Z,12.97
2019-06-07T08:01:10.079Z,14.20
2019-06-07T08:03:33.348Z,14.10
2019-06-07T08:06:02.887Z,13.20
2019-06-07T08:08:32.352Z,13.57
2019-06-07T08:11:02.538Z,13.10
2019-06-07T08:13:32.164Z,12.73
2019-06-07T08:16:10.606Z,12.40
2019-06-07T08:18:32.827Z,13.37
2019-06-07T08:21:21.157Z,12.77
2019-06-07T08:23:33.436Z,13.07
2019-06-07T08:26:02.900Z,14.10
2019-06-07T08:28:32.477Z,13.00
2019-06-07T08:31:06.875Z,12.83
2019-06-07T08:33:34.763Z,13.13
2019-06-07T08:36:19.492Z,13.13
2019-06-07T08:38:47.619Z,12.43
2019-06-07T08:41:12.116Z,11.10
2019-06-07T08:43:38.679Z,8.10
2019-06-07T08:46:08.296Z,10.33
2019-06-07T08:48:37.786Z,9.57
2019-06-07T08:51:08.606Z,9.37
2019-06-07T08:53:38.875Z,10.20
2019-06-07T08:56:11.031Z,10.40
2019-06-07T08:58:40.229Z,9.73
2019-06-07T09:01:09.618Z,10.37
2019-06-07T09:03:39.417Z,10.47
2019-06-07T09:06:53.864Z,10.40
2019-06-07T09:08:40.243Z,10.23
2019-06-07T09:11:11.318Z,10.73
2019-06-07T09:13:41.115Z,9.97
2019-06-07T09:16:10.533Z,8.97
2019-06-07T09:18:44.016Z,8.93
2019-06-07T09:21:11.087Z,8.20
2019-06-07T09:23:40.602Z,8.57
2019-06-07T09:26:16.569Z,7.60
2019-06-07T09:28:41.801Z,7.07
2019-06-07T09:31:12.759Z,6.73
2019-06-07T09:33:42.537Z,6.40
2019-06-07T09:36:13.489Z,6.70
2019-06-07T09:38:44.363Z,5.83
2019-06-07T09:41:15.474Z,5.90
2019-06-07T09:44:10.835Z,6.13
2019-06-07T09:46:16.842Z,5.47
2019-06-07T09:49:10.744Z,4.80
2019-06-07T09:51:20.386Z,4.90
2019-06-07T09:53:48.932Z,6.13
2019-06-07T09:56:19.212Z,6.40
2019-06-07T09:58:52.677Z,7.57
2019-06-07T10:01:19.847Z,7.00
2019-06-07T10:03:49.282Z,6.37
2019-06-07T10:06:18.687Z,5.60
2019-06-07T10:11:19.280Z,6.17
2019-06-07T10:13:48.726Z,6.37
2019-06-07T10:16:18.174Z,5.90
2019-06-07T10:18:47.773Z,5.27
2019-06-07T10:21:17.210Z,5.57
2019-06-07T10:23:46.657Z,5.53
2019-06-07T10:26:16.252Z,5.23
2019-06-07T10:28:45.689Z,6.10
2019-06-07T10:31:15.133Z,5.90
2019-06-07T10:33:44.603Z,6.47
2019-06-07T10:36:14.048Z,5.83
2019-06-07T10:38:43.491Z,5.87
2019-06-07T10:41:12.920Z,5.97
2019-06-07T10:43:42.374Z,5.50
2019-06-07T10:46:12.153Z,5.37
2019-06-07T10:48:41.715Z,5.53
2019-06-07T10:51:14.374Z,5.40
2019-06-07T10:53:42.443Z,5.00
2019-06-07T10:56:13.378Z,5.87
2019-06-07T10:58:43.007Z,5.20
2019-06-07T11:01:14.223Z,5.53
2019-06-07T11:03:45.099Z,5.60
2019-06-07T11:06:14.605Z,5.70
2019-06-07T11:08:44.190Z,5.27
2019-06-07T11:11:14.397Z,5.40
2019-06-07T11:13:43.982Z,5.50
2019-06-07T11:16:13.410Z,5.53
2019-06-07T11:18:42.836Z,5.17
2019-06-07T11:21:12.279Z,4.67
2019-06-07T11:23:41.702Z,5.03
2019-06-07T11:26:12.374Z,5.10
2019-06-07T11:28:42.022Z,4.87
2019-06-07T11:31:13.231Z,5.13
2019-06-07T11:33:43.101Z,4.77
2019-06-07T11:36:12.956Z,4.50
2019-06-07T11:38:42.344Z,4.57
2019-06-07T11:41:11.827Z,4.53
2019-06-07T11:43:41.307Z,3.90
2019-06-07T11:46:11.074Z,4.30
2019-06-07T11:48:40.663Z,4.20
2019-06-07T11:51:10.786Z,3.93
2019-06-07T11:53:40.435Z,4.40
2019-06-07T11:56:10.336Z,4.30
2019-06-07T11:58:40.046Z,4.07
2019-06-07T12:01:11.741Z,4.17
2019-06-07T12:03:41.340Z,4.10
2019-06-07T12:06:12.030Z,3.80
2019-06-07T12:08:41.874Z,3.90
2019-06-07T12:11:12.192Z,4.23
2019-06-07T12:13:41.798Z,3.80
2019-06-07T12:16:11.386Z,3.87
2019-06-07T12:18:40.806Z,3.30
2019-06-07T12:21:11.441Z,3.70
2019-06-07T12:23:40.963Z,3.83
2019-06-07T12:26:10.389Z,3.83
2019-06-07T12:28:41.303Z,3.40
2019-06-07T12:31:10.912Z,4.00
2019-06-07T12:33:58.141Z,3.83
2019-06-07T12:36:27.639Z,3.60
2019-06-07T12:38:57.066Z,3.60
2019-06-07T12:41:26.499Z,3.30
2019-06-07T12:43:59.105Z,3.40
2019-06-07T12:46:28.701Z,3.73
2019-06-07T12:48:58.237Z,3.40
2019-06-07T12:51:27.935Z,3.80
2019-06-07T12:53:57.411Z,3.40
2019-06-07T12:56:26.830Z,3.67
2019-06-07T12:58:56.311Z,3.50
2019-06-07T13:01:25.770Z,3.40
2019-06-07T13:03:55.210Z,3.50
2019-06-07T13:06:24.627Z,3.80
2019-06-07T13:08:54.138Z,3.67
2019-06-07T13:11:28.178Z,3.60
2019-06-07T13:13:54.752Z,3.53
2019-06-07T13:16:24.330Z,3.87
2019-06-07T13:18:53.720Z,3.80
2019-06-07T13:21:24.654Z,3.50
2019-06-07T13:23:54.299Z,3.60
2019-06-07T13:26:24.953Z,3.70
2019-06-07T13:28:54.637Z,3.73
2019-06-07T13:31:25.245Z,3.93
2019-06-07T13:33:54.771Z,3.80
2019-06-07T13:36:24.450Z,4.07
2019-06-07T13:38:54.004Z,3.10
2019-06-07T13:41:36.405Z,3.70
2019-06-07T13:43:54.664Z,3.43
2019-06-07T13:46:25.321Z,3.57
2019-06-07T13:48:54.963Z,3.73
2019-06-07T13:51:25.216Z,3.80
2019-06-07T13:53:55.530Z,3.90
2019-06-07T13:56:26.087Z,3.70
2019-06-07T13:58:55.618Z,4.00
2019-06-07T14:01:25.029Z,3.57
2019-06-07T14:03:54.607Z,4.20
2019-06-07T14:06:25.249Z,3.60
2019-06-07T14:08:55.131Z,3.90
2019-06-07T14:11:25.635Z,3.80
2019-06-07T14:13:55.095Z,3.70
2019-06-07T14:16:24.505Z,3.73
2019-06-07T14:18:53.943Z,3.70
2019-06-07T14:21:24.581Z,3.40
2019-06-07T14:23:54.172Z,3.43
2019-06-07T14:26:23.585Z,3.63
2019-06-07T14:28:53.183Z,4.13
2019-06-07T14:31:24.385Z,3.90
2019-06-07T14:33:53.767Z,3.63
2019-06-07T14:36:24.875Z,4.07
2019-06-07T14:38:54.330Z,3.43
2019-06-07T14:41:24.939Z,3.20
2019-06-07T14:43:54.658Z,3.30
2019-06-07T14:46:25.254Z,3.70
2019-06-07T14:48:55.857Z,3.50
2019-06-07T14:51:26.226Z,3.40
2019-06-07T14:53:55.653Z,3.77
2019-06-07T14:56:25.260Z,3.20
2019-06-07T14:58:56.166Z,3.43
2019-06-07T15:01:26.265Z,3.43
2019-06-07T15:04:05.339Z,3.50
2019-06-07T15:06:36.866Z,3.80
2019-06-07T15:09:07.877Z,3.87
2019-06-07T15:11:37.352Z,3.43
2019-06-07T15:14:06.869Z,3.90
2019-06-07T15:16:37.821Z,3.90
2019-06-07T15:19:07.450Z,3.63
2019-06-07T15:21:36.877Z,3.50
2019-06-07T15:24:06.403Z,4.00
2019-06-07T15:26:36.434Z,3.83
2019-06-07T15:29:07.062Z,3.63
2019-06-07T15:31:37.177Z,3.37
2019-06-07T15:34:09.389Z,3.57
2019-06-07T15:36:38.932Z,3.70
2019-06-07T15:39:08.527Z,3.30
2019-06-07T15:41:39.727Z,3.37
2019-06-07T15:44:09.526Z,3.60
2019-06-07T15:46:40.103Z,3.53
2019-06-07T15:49:09.992Z,3.37
2019-06-07T15:51:40.824Z,3.30
2019-06-07T15:54:10.542Z,3.20
2019-06-07T15:56:41.364Z,3.00
2019-06-07T15:59:12.266Z,3.10
2019-06-07T16:01:42.239Z,3.50
2019-06-07T16:04:11.902Z,4.00
2019-06-07T16:06:43.496Z,3.63
2019-06-07T16:09:12.607Z,3.60
2019-06-07T16:11:44.215Z,3.60
2019-06-07T16:14:13.794Z,3.50
2019-06-07T16:16:44.214Z,3.50
2019-06-07T16:19:13.764Z,3.60
2019-06-07T16:21:43.702Z,4.13
2019-06-07T16:24:13.126Z,3.67
2019-06-07T16:26:42.724Z,3.70
2019-06-07T16:29:12.150Z,3.80
2019-06-07T16:31:42.758Z,4.07
2019-06-07T16:34:12.271Z,3.57
2019-06-07T16:36:42.291Z,3.70
2019-06-07T16:39:11.729Z,3.30
2019-06-07T16:41:42.707Z,2.97
2019-06-07T16:44:12.292Z,3.40
2019-06-07T16:46:42.870Z,3.07
2019-06-07T16:49:13.563Z,3.40
2019-06-07T16:51:43.330Z,3.10
2019-06-07T16:54:14.829Z,3.90
2019-06-07T16:56:49.017Z,3.90
2019-06-07T16:59:16.849Z,3.70
2019-06-07T17:01:46.283Z,3.53
2019-06-07T17:04:15.782Z,3.33
2019-06-07T17:06:46.427Z,3.77
2019-06-07T17:09:16.027Z,3.47
2019-06-07T17:11:46.407Z,3.77
2019-06-07T17:14:16.095Z,3.43
2019-06-07T17:16:46.105Z,3.63
2019-06-07T17:19:16.671Z,3.40
2019-06-07T17:21:47.395Z,3.57
2019-06-07T17:24:17.021Z,3.43
2019-06-07T17:26:47.686Z,3.60
2019-06-07T17:29:17.277Z,3.50
2019-06-07T17:31:48.126Z,3.30
2019-06-07T17:34:17.792Z,3.63
2019-06-07T17:36:48.637Z,3.70
2019-06-07T17:39:18.303Z,3.97
2019-06-07T17:41:55.263Z,4.47
2019-06-07T17:44:18.894Z,4.83
2019-06-07T17:46:49.895Z,5.47
2019-06-07T17:49:19.512Z,6.10
2019-06-07T17:51:49.973Z,6.50
2019-06-07T17:54:19.462Z,6.60
2019-06-07T17:56:48.883Z,6.87
2019-06-07T17:59:18.341Z,7.07
2019-06-07T18:02:10.221Z,6.37
2019-06-07T18:04:18.951Z,6.80
2019-06-07T18:06:49.717Z,7.77
2019-06-07T18:09:19.740Z,6.50
2019-06-07T18:11:49.992Z,7.90
2019-06-07T18:14:19.615Z,7.13
2019-06-07T18:16:50.466Z,7.97
2019-06-07T18:19:20.038Z,7.93
2019-06-07T18:21:50.737Z,7.43
2019-06-07T18:24:21.303Z,5.73
2019-06-07T18:26:50.765Z,6.90
2019-06-07T18:29:20.253Z,6.40
2019-06-07T18:31:50.746Z,5.40
2019-06-07T18:34:20.167Z,5.07
2019-06-07T18:36:50.930Z,5.50
2019-06-07T18:39:20.518Z,4.77
2019-06-07T18:41:51.819Z,4.70
2019-06-07T18:44:22.044Z,3.97
2019-06-07T18:46:52.243Z,3.47
2019-06-07T18:49:21.699Z,3.80
2019-06-07T18:52:08.730Z,3.87
2019-06-07T18:54:38.156Z,4.33
2019-06-07T18:57:07.603Z,4.77
2019-06-07T18:59:36.998Z,4.43
2019-06-07T19:02:06.541Z,4.53
2019-06-07T19:04:35.995Z,4.40
2019-06-07T19:07:05.523Z,4.53
2019-06-07T19:09:34.993Z,4.57
2019-06-07T19:12:04.511Z,4.67
2019-06-07T19:14:37.414Z,4.80
2019-06-07T19:17:05.249Z,4.90
2019-06-07T19:19:34.709Z,5.00
2019-06-07T19:22:04.418Z,5.70
2019-06-07T19:24:33.924Z,5.80
2019-06-07T19:27:03.373Z,5.73
2019-06-07T19:29:32.813Z,5.80
2019-06-07T19:32:02.345Z,5.20
2019-06-07T19:34:31.904Z,5.63
2019-06-07T19:37:02.127Z,5.93
2019-06-07T19:39:31.550Z,5.83
2019-06-07T19:42:02.179Z,5.93
2019-06-07T19:44:31.795Z,6.10
2019-06-07T19:47:02.619Z,6.27
2019-06-07T19:49:32.242Z,6.07
2019-06-07T19:52:03.135Z,6.53
2019-06-07T19:54:32.646Z,6.03
2019-06-07T19:57:02.100Z,6.33
2019-06-07T19:59:31.509Z,6.50
2019-06-07T20:02:02.113Z,7.17
2019-06-07T20:04:31.642Z,6.87
2019-06-07T20:07:03.482Z,7.67
2019-06-07T20:09:32.473Z,7.50
2019-06-07T20:12:02.887Z,8.47
2019-06-07T20:14:32.391Z,7.70
2019-06-07T20:17:03.498Z,7.63
2019-06-07T20:19:33.041Z,7.93
2019-06-07T20:22:03.170Z,7.63
2019-06-07T20:24:32.721Z,6.80
2019-06-07T20:27:02.389Z,7.47
2019-06-07T20:29:31.812Z,7.03
2019-06-07T20:32:02.419Z,6.43
2019-06-07T20:34:31.994Z,6.23
2019-06-07T20:37:03.893Z,5.70
2019-06-07T20:39:32.593Z,5.47
2019-06-07T20:42:03.384Z,4.50
2019-06-07T20:44:33.037Z,4.27
2019-06-07T20:47:02.469Z,4.10
2019-06-07T20:49:31.914Z,3.73
2019-06-07T20:52:03.045Z,4.20
2019-06-07T20:54:32.500Z,4.10
2019-06-07T20:57:02.638Z,4.87
2019-06-07T20:59:32.236Z,5.53
2019-06-07T21:02:03.016Z,6.33
2019-06-07T21:04:32.615Z,5.80
2019-06-07T21:07:03.199Z,5.80
2019-06-07T21:09:32.827Z,6.10
2019-06-07T21:12:02.268Z,6.30
2019-06-07T21:14:31.714Z,5.70
2019-06-07T21:17:02.122Z,6.03
2019-06-07T21:19:31.686Z,5.90
2019-06-07T21:22:02.315Z,6.20
2019-06-07T21:24:31.889Z,5.50
2019-06-07T21:27:01.761Z,5.17
2019-06-07T21:29:32.508Z,5.50
2019-06-07T21:32:03.218Z,5.40
2019-06-07T21:34:32.818Z,5.13
2019-06-07T21:37:03.638Z,5.60
2019-06-07T21:39:33.304Z,5.30
2019-06-07T21:42:04.128Z,5.30
2019-06-07T21:44:33.841Z,5.23
2019-06-07T21:47:04.209Z,4.77
2019-06-07T21:49:35.073Z,4.40
2019-06-07T21:52:06.482Z,4.13
2019-06-07T21:54:36.128Z,4.20
2019-06-07T21:57:06.850Z,4.13
2019-06-07T21:59:36.422Z,3.43
2019-06-07T22:02:05.938Z,3.77
2019-06-07T22:04:35.385Z,3.60
2019-06-07T22:07:05.313Z,3.00
2019-06-07T22:09:34.877Z,3.30
2019-06-07T22:12:05.934Z,3.10
2019-06-07T22:14:35.471Z,3.10
2019-06-07T22:17:06.094Z,2.60
2019-06-07T22:19:35.593Z,2.60
2019-06-07T22:22:05.244Z,2.47
2019-06-07T22:24:36.143Z,2.30
2019-06-07T22:27:07.032Z,2.10
2019-06-07T22:29:36.613Z,2.40
2019-06-07T22:32:06.925Z,2.07
2019-06-07T22:34:36.381Z,2.00
2019-06-07T22:37:07.100Z,2.13
2019-06-07T22:39:36.736Z,2.00
2019-06-07T22:42:08.740Z,2.10
2019-06-07T22:44:40.142Z,1.70
2019-06-07T22:47:09.966Z,1.80
2019-06-07T22:49:39.515Z,1.93
2019-06-07T22:52:12.046Z,1.80
2019-06-07T22:54:40.141Z,1.50
2019-06-07T22:57:14.206Z,1.83
2019-06-07T22:59:43.646Z,1.70
2019-06-07T23:02:14.575Z,1.73
2019-06-07T23:04:44.134Z,1.60
2019-06-07T23:07:14.880Z,1.30
2019-06-07T23:09:44.503Z,1.57
2019-06-07T23:12:15.216Z,1.50
2019-06-07T23:14:44.781Z,1.63
2019-06-07T23:17:15.639Z,1.70
2019-06-07T23:19:45.315Z,1.90
2019-06-07T23:22:16.031Z,1.67
2019-06-07T23:24:45.563Z,2.20
2019-06-07T23:27:16.353Z,1.80
2019-06-07T23:29:45.971Z,1.50
2019-06-07T23:32:16.659Z,1.77
2019-06-07T23:34:46.177Z,1.70
2019-06-07T23:37:17.020Z,1.77
2019-06-07T23:39:46.491Z,1.80
2019-06-07T23:42:15.937Z,1.77
2019-06-07T23:44:45.344Z,1.80
2019-06-07T23:47:17.165Z,1.80
2019-06-07T23:49:46.082Z,1.73
2019-06-07T23:52:15.765Z,1.83
2019-06-07T23:54:45.175Z,1.60
2019-06-07T23:57:15.925Z,1.50
2019-06-07T23:59:45.417Z,1.80
